Time;durP1;ratioP1;P1;durP2;ratioP2;P2;SDS_P1;SDS_P2;PMS_P1;PMS_P2;Temp;Humidity;BMP_temperature;BMP_pressure;BME280_temperature;BME280_humidity;BME280_pressure;Samples;Min_cycle;Max_cycle;Signal;HPM_P1;HPM_P2
2024/01/16 00:01:56;;;;;;;15.35;5.18;;;;;;;9.65;100.00;97406.13;6254371;22;20019;-93
2024/01/16 00:04:26;;;;;;;11.35;3.80;;;;;;;9.78;100.00;97411.72;6258256;22;20102;-94
2024/01/16 00:06:52;;;;;;;15.57;4.18;;;;;;;9.92;100.00;97453.59;6257457;22;20051;-94
2024/01/16 00:09:21;;;;;;;11.95;4.28;;;;;;;10.41;100.00;97531.03;6256587;22;20326;-93
2024/01/16 00:11:48;;;;;;;21.42;4.55;;;;;;;10.42;100.00;97562.88;6257465;22;19996;-94
2024/01/16 00:14:29;;;;;;;14.02;4.25;;;;;;;10.30;100.00;97539.53;6256556;22;20020;-93
2024/01/16 00:16:55;;;;;;;14.77;4.25;;;;;;;10.52;100.00;97581.06;6252125;22;20006;-93
2024/01/16 00:19:21;;;;;;;13.52;4.35;;;;;;;10.44;100.00;97552.19;6256641;22;20454;-93
2024/01/16 00:21:52;;;;;;;12.88;4.32;;;;;;;9.72;100.00;97444.75;6256164;22;20020;-93
2024/01/16 00:24:21;;;;;;;17.38;4.75;;;;;;;9.64;100.00;97439.75;6254408;22;20349;-95
2024/01/16 00:26:49;;;;;;;14.20;4.85;;;;;;;9.70;100.00;97445.75;6255630;22;20150;-93
2024/01/16 00:29:18;;;;;;;15.75;4.60;;;;;;;9.97;100.00;97484.31;6256951;22;20046;-94
2024/01/16 00:31:47;;;;;;;12.10;4.20;;;;;;;10.44;100.00;97558.34;6253369;22;20454;-94
2024/01/16 00:34:13;;;;;;;10.23;3.78;;;;;;;9.71;100.00;97444.78;6249153;23;20024;-93
2024/01/16 00:36:42;;;;;;;11.90;4.40;;;;;;;10.19;100.00;97528.47;6249906;23;20220;-94
2024/01/16 00:39:10;;;;;;;10.85;4.30;;;;;;;9.68;100.00;97452.91;6250183;23;20023;-92
2024/01/16 00:41:36;;;;;;;12.52;4.10;;;;;;;9.65;100.00;97457.41;6249987;23;20016;-93
2024/01/16 00:44:02;;;;;;;13.02;4.25;;;;;;;9.51;100.00;97433.28;6248444;23;20043;-96
2024/01/16 00:46:31;;;;;;;17.85;3.65;;;;;;;9.61;100.00;97457.63;6247946;23;20012;-94
2024/01/16 00:49:04;;;;;;;11.13;3.72;;;;;;;10.05;100.00;97523.81;6248111;23;20039;-92
2024/01/16 00:51:32;;;;;;;13.73;4.05;;;;;;;9.84;100.00;97505.22;6248704;23;20020;-94
2024/01/16 00:53:58;;;;;;;10.77;3.67;;;;;;;10.57;100.00;97617.13;6251010;22;20024;-95
2024/01/16 00:56:27;;;;;;;10.88;3.22;;;;;;;10.30;100.00;97587.38;6250228;23;20039;-94
2024/01/16 00:58:54;;;;;;;18.15;4.25;;;;;;;10.62;100.00;97640.84;6250075;23;20081;-94
2024/01/16 01:01:20;;;;;;;15.82;3.90;;;;;;;9.62;100.00;97475.25;6246261;22;20093;-92
2024/01/16 01:03:46;;;;;;;14.25;3.90;;;;;;;9.62;100.00;97472.59;6250485;23;20043;-94
2024/01/16 01:06:14;;;;;;;11.80;3.92;;;;;;;9.65;100.00;97491.06;6249536;23;20338;-94
2024/01/16 01:08:40;;;;;;;13.02;3.63;;;;;;;9.65;100.00;97493.72;6247678;23;20024;-95
2024/01/16 01:11:08;;;;;;;12.85;3.65;;;;;;;9.96;100.00;97541.03;6250594;23;20099;-92
2024/01/16 01:13:39;;;;;;;19.25;4.40;;;;;;;9.60;100.00;97495.69;6248260;23;20020;-94
2024/01/16 01:16:07;;;;;;;13.93;3.92;;;;;;;10.56;100.00;97652.63;6246978;23;20054;-93
2024/01/16 01:18:33;;;;;;;9.77;3.45;;;;;;;9.74;100.00;97505.72;6249797;23;20020;-92
2024/01/16 01:20:59;;;;;;;13.20;4.05;;;;;;;10.25;100.00;97607.91;6248847;23;20073;-95
2024/01/16 01:23:26;;;;;;;9.55;2.92;;;;;;;10.44;100.00;97637.22;6249549;22;20395;-94
2024/01/16 01:25:52;;;;;;;18.17;3.75;;;;;;;9.99;100.00;97570.09;6248380;23;20023;-94
2024/01/16 01:28:18;;;;;;;6.47;3.03;;;;;;;9.81;100.00;97536.38;6248605;22;20036;-93
2024/01/16 01:30:47;;;;;;;13.38;3.65;;;;;;;9.61;100.00;97493.00;6247204;23;20024;-93
2024/01/16 01:33:12;;;;;;;14.50;3.45;;;;;;;10.60;100.00;97653.34;6249262;22;20469;-93
2024/01/16 01:35:41;;;;;;;13.50;3.35;;;;;;;10.39;100.00;97632.13;6249957;22;20035;-93
2024/01/16 01:38:09;;;;;;;9.77;2.53;;;;;;;10.05;100.00;97564.50;6248197;23;20027;-95
2024/01/16 01:40:37;;;;;;;14.20;2.70;;;;;;;9.70;100.00;97518.28;6248035;23;20028;-92
2024/01/16 01:43:19;;;;;;;9.00;2.83;;;;;;;10.05;100.00;97567.16;6247842;23;20038;-94
2024/01/16 01:45:56;;;;;;;12.13;2.47;;;;;;;10.70;100.00;97665.31;6247206;23;20028;-95
2024/01/16 01:48:27;;;;;;;11.02;2.70;;;;;;;9.59;100.00;97478.91;6224260;23;20107;-94
2024/01/16 01:50:53;;;;;;;13.48;3.10;;;;;;;9.56;100.00;97489.66;6224332;23;20016;-92
2024/01/16 01:53:24;;;;;;;16.10;2.78;;;;;;;9.86;100.00;97537.03;6222226;22;20000;-94
2024/01/16 01:55:55;;;;;;;9.00;2.70;;;;;;;10.46;100.00;97633.56;6250443;23;20439;-94
2024/01/16 01:58:25;;;;;;;11.48;2.95;;;;;;;9.64;100.00;97513.22;6248954;23;20024;-94
2024/01/16 02:00:51;;;;;;;14.23;2.85;;;;;;;9.83;100.00;97574.34;6216334;23;20020;-93
2024/01/16 02:03:22;;;;;;;5.45;2.67;;;;;;;10.27;100.00;97609.56;6245103;23;20071;-94
2024/01/16 02:05:51;;;;;;;8.82;2.80;;;;;;;9.79;100.00;97514.34;6248584;23;20017;-94
2024/01/16 02:08:20;;;;;;;9.30;2.05;;;;;;;10.37;100.00;97594.13;6225146;23;20451;-93
2024/01/16 02:10:49;;;;;;;9.15;2.08;;;;;;;10.37;100.00;97593.28;6248540;23;20082;-93
2024/01/16 02:13:20;;;;;;;6.22;1.92;;;;;;;10.18;100.00;97564.81;6224554;22;20449;-94
2024/01/16 02:15:50;;;;;;;5.35;2.22;;;;;;;9.87;100.00;97523.69;6247437;23;20028;-93
2024/01/16 02:18:18;;;;;;;11.48;2.80;;;;;;;9.90;100.00;97528.00;6248822;23;20319;-93
2024/01/16 02:20:47;;;;;;;8.57;2.63;;;;;;;9.78;100.00;97529.41;6247828;23;20052;-93
2024/01/16 02:23:25;;;;;;;11.63;2.35;;;;;;;9.85;100.00;97522.91;6247590;23;20020;-93
2024/01/16 02:25:53;;;;;;;10.15;2.72;;;;;;;10.71;100.00;97671.47;6247929;23;20016;-94
2024/01/16 02:28:19;;;;;;;10.48;2.53;;;;;;;10.00;100.00;97571.81;6248283;22;20111;-93
2024/01/16 02:30:46;;;;;;;10.43;2.25;;;;;;;9.76;100.00;97531.28;6243511;23;20023;-95
2024/01/16 02:33:13;;;;;;;8.85;2.45;;;;;;;10.71;100.00;97676.78;6248394;23;20358;-94
2024/01/16 02:35:39;;;;;;;6.60;2.00;;;;;;;9.82;100.00;97506.22;6247968;22;20028;-93
2024/01/16 02:38:11;;;;;;;7.15;2.28;;;;;;;10.81;100.00;97670.13;6248569;23;20023;-93
2024/01/16 02:40:38;;;;;;;6.55;2.00;;;;;;;10.53;100.00;97641.28;6247925;23;20134;-93
2024/01/16 02:43:07;;;;;;;8.63;2.65;;;;;;;9.59;100.00;97470.09;6223536;23;20020;-94
2024/01/16 02:45:33;;;;;;;10.57;2.92;;;;;;;9.88;100.00;97527.22;6247260;23;20449;-94
2024/01/16 02:48:03;;;;;;;10.07;2.00;;;;;;;9.83;100.00;97497.34;6249115;23;20020;-96
2024/01/16 02:50:29;;;;;;;7.03;1.92;;;;;;;10.25;100.00;97586.66;6249987;23;20020;-93
2024/01/16 02:52:55;;;;;;;16.15;2.25;;;;;;;9.65;100.00;97510.50;6248172;23;20147;-93
2024/01/16 02:55:24;;;;;;;8.90;2.38;;;;;;;10.27;100.00;97600.75;6248456;23;20346;-94
2024/01/16 02:57:51;;;;;;;7.82;2.40;;;;;;;10.75;100.00;97691.69;6249937;23;20473;-94
2024/01/16 03:00:18;;;;;;;7.97;2.10;;;;;;;10.72;100.00;97687.38;6248446;22;20017;-93
2024/01/16 03:02:50;;;;;;;10.27;2.17;;;;;;;9.73;100.00;97526.09;6249655;23;20012;-93
2024/01/16 03:05:16;;;;;;;10.07;2.58;;;;;;;9.60;100.00;97509.81;6250401;23;20020;-93
2024/01/16 03:07:44;;;;;;;6.22;2.20;;;;;;;10.10;100.00;97596.16;6250716;22;20749;-94
2024/01/16 03:10:11;;;;;;;6.78;2.10;;;;;;;10.42;100.00;97653.25;6248453;23;20028;-93
2024/01/16 03:12:37;;;;;;;9.40;1.85;;;;;;;9.70;100.00;97518.28;6249805;23;20035;-93
2024/01/16 03:15:06;;;;;;;7.75;2.13;;;;;;;9.63;100.00;97522.13;6247659;23;20086;-92
2024/01/16 03:17:32;;;;;;;8.40;1.83;;;;;;;9.61;100.00;97532.81;6250931;23;20098;-94
2024/01/16 03:20:07;;;;;;;11.73;2.20;;;;;;;9.36;100.00;97501.13;6249559;22;20043;-92
2024/01/16 03:22:35;;;;;;;6.80;1.90;;;;;;;9.42;100.00;97514.13;6248944;23;20494;-93
2024/01/16 03:25:02;;;;;;;8.30;2.28;;;;;;;9.77;100.00;97587.88;6225376;23;20012;-92
2024/01/16 03:27:28;;;;;;;10.93;2.00;;;;;;;9.43;100.00;97528.25;6249995;23;20024;-94
2024/01/16 03:29:54;;;;;;;5.03;2.00;;;;;;;9.39;100.00;97538.16;6250354;23;20448;-94
2024/01/16 03:32:21;;;;;;;8.45;1.98;;;;;;;10.28;100.00;97692.81;6247339;22;20012;-93
2024/01/16 03:34:47;;;;;;;13.32;2.45;;;;;;;9.36;100.00;97551.53;6249977;22;20086;-93
2024/01/16 03:37:16;;;;;;;8.07;2.10;;;;;;;9.19;100.00;97538.97;6223163;23;20024;-94
2024/01/16 03:39:44;;;;;;;6.82;1.90;;;;;;;9.21;100.00;97530.97;6221699;23;20024;-93
2024/01/16 03:42:12;;;;;;;7.30;1.88;;;;;;;9.47;100.00;97577.63;6222434;23;20087;-93
2024/01/16 03:44:39;;;;;;;7.85;2.78;;;;;;;10.14;100.00;97688.09;6248991;23;20020;-94
2024/01/16 03:47:05;;;;;;;7.72;2.13;;;;;;;10.20;100.00;97690.47;6222751;23;20517;-94
2024/01/16 03:49:32;;;;;;;6.05;1.83;;;;;;;10.00;100.00;97675.41;6224696;23;20043;-94
2024/01/16 03:52:01;;;;;;;7.30;1.83;;;;;;;10.07;100.00;97683.97;6224885;23;20350;-94
2024/01/16 03:54:27;;;;;;;8.85;2.42;;;;;;;9.25;100.00;97544.03;6225539;22;20027;-96
2024/01/16 03:56:58;;;;;;;6.80;2.17;;;;;;;9.38;100.00;97586.84;6250849;23;20377;-94
2024/01/16 03:59:32;;;;;;;8.27;2.25;;;;;;;10.20;100.00;97727.69;6224958;23;20016;-93
2024/01/16 04:02:00;;;;;;;6.28;2.03;;;;;;;9.95;100.00;97676.50;6220958;23;20023;-95
2024/01/16 04:04:26;;;;;;;10.13;1.92;;;;;;;10.21;100.00;97694.88;6225057;23;20067;-93
2024/01/16 04:06:56;;;;;;;5.60;2.30;;;;;;;9.14;100.00;97548.06;6251357;23;20028;-94
2024/01/16 04:09:27;;;;;;;8.93;2.45;;;;;;;9.35;100.00;97592.28;6250775;23;20020;-93
2024/01/16 04:11:56;;;;;;;13.43;2.35;;;;;;;9.90;100.00;97708.56;6251861;23;20070;-95
2024/01/16 04:14:22;;;;;;;8.65;2.35;;;;;;;8.89;100.00;97543.75;6251549;23;20024;-93
2024/01/16 04:16:50;;;;;;;10.82;2.42;;;;;;;8.95;100.00;97547.94;6249507;23;20450;-94
2024/01/16 04:19:16;;;;;;;10.10;2.63;;;;;;;9.00;100.00;97564.50;6251339;23;20004;-95
2024/01/16 04:21:44;;;;;;;7.30;2.22;;;;;;;8.81;100.00;97538.75;6251737;23;20046;-94
2024/01/16 04:24:14;;;;;;;10.77;2.08;;;;;;;9.72;100.00;97696.06;6251280;23;20020;-93
2024/01/16 04:26:47;;;;;;;11.82;2.78;;;;;;;9.69;100.00;97693.53;6225177;23;20031;-93
2024/01/16 04:29:14;;;;;;;5.93;2.17;;;;;;;9.34;100.00;97626.81;6248426;23;20020;-93
2024/01/16 04:31:41;;;;;;;7.85;2.50;;;;;;;8.93;100.00;97566.53;6249716;23;20023;-93
2024/01/16 04:34:07;;;;;;;9.02;2.47;;;;;;;8.95;100.00;97575.31;6251212;22;20354;-93
2024/01/16 04:36:32;;;;;;;13.60;2.72;;;;;;;9.39;100.00;97654.03;6251015;23;20027;-93
2024/01/16 04:39:01;;;;;;;5.65;2.03;;;;;;;9.98;100.00;97746.31;6249866;23;20020;-95
2024/01/16 04:41:28;;;;;;;10.63;3.08;;;;;;;9.32;100.00;97637.47;6249796;23;20816;-93
2024/01/16 04:43:54;;;;;;;16.85;3.05;;;;;;;9.40;100.00;97645.16;6248403;23;20119;-94
2024/01/16 04:46:23;;;;;;;7.80;2.67;;;;;;;10.04;100.00;97735.44;6247777;22;20103;-93
2024/01/16 04:48:52;;;;;;;9.18;2.50;;;;;;;9.11;100.00;97586.19;6223558;23;20027;-94
2024/01/16 04:51:24;;;;;;;12.02;2.65;;;;;;;9.62;100.00;97671.69;6249131;22;20440;-94
2024/01/16 04:53:55;;;;;;;7.95;2.70;;;;;;;9.39;100.00;97643.41;6249040;23;20533;-92
2024/01/16 04:56:26;;;;;;;11.65;2.97;;;;;;;9.99;100.00;97756.00;6247522;23;20110;-93
2024/01/16 04:58:56;;;;;;;8.43;2.72;;;;;;;9.81;100.00;97727.53;6248281;23;20024;-94
2024/01/16 05:01:36;;;;;;;7.15;2.15;;;;;;;8.94;100.00;97599.25;6220378;23;20062;-92
2024/01/16 05:04:18;;;;;;;8.77;2.40;;;;;;;9.83;100.00;97754.91;6248681;23;20442;-94
2024/01/16 05:07:06;;;;;;;6.60;2.92;;;;;;;9.60;100.00;97731.91;6192645;23;20039;-94
2024/01/16 05:10:08;;;;;;;7.10;2.67;;;;;;;9.25;100.00;97681.09;6224951;23;20016;-95
2024/01/16 05:12:43;;;;;;;6.63;3.08;;;;;;;8.73;100.00;97599.13;6102848;23;20028;-96
2024/01/16 05:15:22;;;;;;;8.82;2.22;;;;;;;9.69;100.00;97765.19;6098819;23;20017;-94
2024/01/16 05:18:15;;;;;;;5.68;2.08;;;;;;;8.58;100.00;97597.06;6125487;23;20022;-92
2024/01/16 05:20:58;;;;;;;7.82;2.70;;;;;;;8.99;100.00;97674.16;6025089;23;20023;-94
2024/01/16 05:23:30;;;;;;;10.90;3.13;;;;;;;9.01;100.00;97690.88;6125290;23;20032;-94
2024/01/16 05:25:56;;;;;;;7.63;2.45;;;;;;;9.00;100.00;97691.78;6100856;23;20026;-94
2024/01/16 05:28:22;;;;;;;10.30;3.05;;;;;;;8.79;100.00;97659.88;6102346;23;20105;-94
2024/01/16 05:31:10;;;;;;;9.13;2.63;;;;;;;8.58;100.00;97631.53;6129424;23;20024;-93
2024/01/16 05:34:11;;;;;;;9.75;2.40;;;;;;;8.98;100.00;97706.91;6150028;23;20487;-93
2024/01/16 05:36:37;;;;;;;8.05;3.30;;;;;;;8.80;100.00;97679.28;6132097;23;20450;-93
2024/01/16 05:39:06;;;;;;;6.40;2.20;;;;;;;8.45;100.00;97628.47;6132276;23;20025;-94
2024/01/16 05:41:48;;;;;;;5.03;2.10;;;;;;;8.55;100.00;97658.16;6132204;23;20014;-94
2024/01/16 05:48:11;;;;;;;10.00;4.05;;;;;;;8.51;100.00;97654.75;6114446;23;20021;-95
2024/01/16 05:50:58;;;;;;;11.35;3.30;;;;;;;8.41;100.00;97653.34;6205345;23;20078;-93
2024/01/16 05:53:53;;;;;;;10.45;3.72;;;;;;;9.16;100.00;97772.50;6231445;23;20081;-92
2024/01/16 05:57:33;;;;;;;9.02;3.85;;;;;;;9.32;100.00;97819.69;6212194;22;20027;-93
2024/01/16 06:00:02;;;;;;;8.93;3.20;;;;;;;8.55;100.00;97705.84;6217545;23;20020;-93
2024/01/16 06:02:30;;;;;;;8.60;3.33;;;;;;;8.90;100.00;97764.66;6244244;23;20446;-92
2024/01/16 06:05:00;;;;;;;11.00;3.28;;;;;;;8.43;100.00;97691.22;6248669;23;20080;-94
2024/01/16 06:07:26;;;;;;;;;;;;;;;9.07;100.00;97812.63;6250269;23;20024;-95
2024/01/16 06:09:52;;;;;;;8.85;3.30;;;;;;;7.96;100.00;97639.00;6250091;23;20006;-93
2024/01/16 06:12:18;;;;;;;7.15;3.20;;;;;;;8.04;100.00;97681.09;6225956;23;20020;-94
2024/01/16 06:14:46;;;;;;;8.52;2.75;;;;;;;8.40;100.00;97771.69;6221727;23;20099;-95
2024/01/16 06:17:16;;;;;;;10.45;3.03;;;;;;;7.60;100.00;97654.34;6250068;22;20438;-94
2024/01/16 06:19:42;;;;;;;6.38;2.75;;;;;;;7.54;100.00;97655.41;6251404;23;20027;-93
2024/01/16 06:22:11;;;;;;;13.20;2.78;;;;;;;7.53;100.00;97671.34;6251508;23;20024;-93
2024/01/16 06:24:39;;;;;;;5.88;2.72;;;;;;;7.92;100.00;97740.63;6252258;23;20026;-95
2024/01/16 06:27:18;;;;;;;9.25;3.35;;;;;;;8.54;100.00;97849.84;6227261;23;20040;-93
2024/01/16 06:29:52;;;;;;;9.05;3.55;;;;;;;7.54;100.00;97670.41;6248490;23;20024;-95
2024/01/16 06:32:48;;;;;;;7.50;2.85;;;;;;;7.41;100.00;97667.28;6226119;22;20024;-96
2024/01/16 06:38:46;;;;;;;10.15;3.47;;;;;;;8.42;100.00;97844.03;6111451;23;20417;-96
2024/01/16 06:45:39;;;;;;;8.07;3.28;;;;;;;7.92;100.00;97788.25;6090518;23;20100;-96
2024/01/16 06:48:59;;;;;;;9.25;3.30;;;;;;;7.35;100.00;97688.66;5944538;23;20067;-95
2024/01/16 06:51:31;;;;;;;8.27;3.45;;;;;;;7.78;100.00;97756.06;6024317;23;20048;-94
2024/01/16 06:54:36;;;;;;;;;;;;;;;;;;;;;
2024/01/16 06:57:03;;;;;;;7.93;2.85;;;;;;;7.27;100.00;97693.34;6022151;23;20043;-96
2024/01/16 06:59:32;;;;;;;6.32;2.97;;;;;;;7.34;100.00;97724.81;6026019;23;20087;-96
2024/01/16 07:02:32;;;;;;;6.55;2.72;;;;;;;7.60;100.00;97797.22;6025063;23;20019;-96
2024/01/16 07:05:16;;;;;;;10.23;3.03;;;;;;;6.89;100.00;97706.78;6023742;23;20060;-96
2024/01/16 07:07:50;;;;;;;7.78;2.80;;;;;;;7.77;100.00;97839.03;6023641;23;20558;-96
2024/01/16 07:10:22;;;;;;;7.00;2.47;;;;;;;7.46;100.00;97773.84;6024259;23;20030;-95
2024/01/16 07:12:49;;;;;;;12.68;3.28;;;;;;;7.59;100.00;97795.50;6025028;23;20393;-95
2024/01/16 07:15:48;;;;;;;9.50;2.53;;;;;;;7.93;100.00;97842.94;6025029;23;20377;-95
2024/01/16 07:18:28;;;;;;;10.73;2.47;;;;;;;8.22;100.00;97894.13;6025346;23;20023;-95
2024/01/16 07:21:23;;;;;;;6.45;2.83;;;;;;;7.15;100.00;97721.84;6030625;23;20023;-95
2024/01/16 07:24:00;;;;;;;5.55;2.92;;;;;;;7.74;100.00;97800.31;6138390;23;20024;-96
2024/01/16 07:26:29;;;;;;;21.33;7.47;;;;;;;7.46;100.00;97763.25;6231498;23;20113;-96
2024/01/16 07:33:46;;;;;;;11.02;5.13;;;;;;;8.41;100.00;97905.00;6225967;23;20013;-94
2024/01/16 07:41:16;;;;;;;11.48;6.05;;;;;;;8.62;100.00;97924.66;6207848;23;20241;-95
2024/01/16 07:44:29;;;;;;;16.35;7.10;;;;;;;8.73;100.00;97933.09;6172904;23;20021;-96
2024/01/16 07:50:56;;;;;;;13.90;5.97;;;;;;;8.34;100.00;97853.97;5968714;23;20043;-95
2024/01/16 07:53:22;;;;;;;14.45;5.82;;;;;;;8.03;100.00;97791.44;5960873;24;20031;-95
2024/01/16 07:55:50;;;;;;;11.55;5.80;;;;;;;8.88;100.00;97920.28;6073075;23;20022;-96
2024/01/16 08:02:12;;;;;;;18.25;6.38;;;;;;;8.19;100.00;97770.59;6076710;23;20071;-96
2024/01/16 08:05:27;;;;;;;12.43;5.30;;;;;;;9.38;100.00;97946.81;6053442;23;20442;-96
2024/01/16 08:08:46;;;;;;;15.02;5.00;;;;;;;8.75;100.00;97829.69;6055449;23;20331;-95
2024/01/16 08:18:47;;;;;;;13.15;5.15;;;;;;;8.89;100.00;97811.53;5813173;24;20070;-96
2024/01/16 08:28:46;;;;;;;;;;;;;;;;;;;;;
2024/01/16 08:31:18;;;;;;;14.00;5.90;;;;;;;10.06;100.00;97940.78;5844994;24;20014;-96
2024/01/16 08:34:09;;;;;;;16.65;6.32;;;;;;;9.51;100.00;97833.13;5937308;24;20024;-96
2024/01/16 08:37:04;;;;;;;14.63;5.32;;;;;;;9.46;100.00;97833.31;5962663;24;20025;-95
2024/01/16 08:39:39;;;;;;;22.88;5.68;;;;;;;9.22;100.00;97821.81;5964274;24;20508;-96
2024/01/16 08:42:26;;;;;;;11.73;4.97;;;;;;;9.71;100.00;97881.00;5988384;23;20027;-96
2024/01/16 08:45:09;;;;;;;17.88;5.10;;;;;;;9.58;100.00;97848.75;6025104;23;20370;-95
2024/01/16 08:51:13;;;;;;;13.52;4.40;;;;;;;9.94;100.00;97853.59;5972417;23;20106;-96
2024/01/16 08:58:17;;;;;;;16.23;4.38;;;;;;;10.18;100.00;97907.53;6172298;23;20036;-95
2024/01/16 09:01:02;;;;;;;15.68;4.00;;;;;;;9.99;100.00;97856.91;6245532;22;20072;-96
2024/01/16 09:03:38;;;;;;;10.63;3.85;;;;;;;10.04;100.00;97865.59;6260594;22;20079;-96
2024/01/16 09:06:19;;;;;;;11.63;4.70;;;;;;;10.05;100.00;97858.47;6260592;22;20359;-96
2024/01/16 09:08:48;;;;;;;10.18;4.43;;;;;;;10.07;100.00;97859.28;6261574;22;20083;-96
2024/01/16 09:11:27;;;;;;;12.98;4.28;;;;;;;10.55;100.00;97931.81;6262782;22;20462;-96
2024/01/16 09:13:59;;;;;;;14.10;4.15;;;;;;;10.19;100.00;97861.47;6263063;22;20019;-95
2024/01/16 09:16:40;;;;;;;13.07;5.18;;;;;;;10.34;100.00;97891.88;6262805;22;20019;-93
2024/01/16 09:19:39;;;;;;;16.63;5.03;;;;;;;11.25;100.00;98018.47;6264546;22;20317;-96
2024/01/16 09:25:47;;;;;;;12.52;4.55;;;;;;;11.54;100.00;97993.31;6204418;22;20070;-96
2024/01/16 09:28:16;;;;;;;13.57;5.00;;;;;;;11.77;100.00;98021.56;6258938;22;20106;-95
2024/01/16 09:30:42;;;;;;;9.68;4.82;;;;;;;10.60;100.00;97866.88;6262294;22;20495;-96
2024/01/16 09:33:25;;;;;;;11.57;5.68;;;;;;;11.16;100.00;97950.53;6262451;22;20053;-95
2024/01/16 09:35:51;;;;;;;12.40;3.67;;;;;;;10.80;100.00;97889.13;6287777;22;20015;-95
2024/01/16 09:38:50;;;;;;;13.80;3.70;;;;;;;11.56;100.00;97999.44;6263150;22;20042;-96
2024/01/16 09:41:49;;;;;;;8.05;3.40;;;;;;;11.23;100.00;97890.81;6261406;22;20110;-94
2024/01/16 09:48:33;;;;;;;8.95;3.20;;;;;;;11.39;100.00;97875.03;6208062;23;20033;-95
2024/01/16 09:51:33;;;;;;;9.63;2.70;;;;;;;12.45;100.00;98008.75;6218242;23;20073;-95
2024/01/16 09:54:01;;;;;;;10.40;4.18;;;;;;;11.76;100.00;97873.34;6098799;23;20037;-94
2024/01/16 09:56:48;;;;;;;7.72;2.92;;;;;;;12.39;100.00;97958.38;6135229;23;20025;-93
2024/01/16 09:59:39;;;;;;;9.25;2.90;;;;;;;11.97;100.00;97873.31;6135465;23;20028;-94
2024/01/16 10:02:07;;;;;;;5.82;2.70;;;;;;;12.88;100.00;98006.72;6134071;23;20018;-96
2024/01/16 10:04:34;;;;;;;11.95;3.17;;;;;;;12.56;100.00;97922.06;6136034;23;20851;-96
2024/01/16 10:08:24;;;;;;;8.50;3.35;;;;;;;12.17;100.00;97865.25;6158455;23;20021;-93
2024/01/16 10:10:46;;;;;;;9.95;3.20;;;;;;;12.07;100.00;97859.47;6144416;23;20021;-94
2024/01/16 10:14:07;;;;;;;9.27;2.65;;;;;;;12.05;100.00;97860.50;6128186;23;20022;-92
2024/01/16 10:17:28;;;;;;;11.10;3.35;;;;;;;12.00;100.00;97834.06;6143018;23;20051;-92
2024/01/16 10:24:09;;;;;;;8.85;3.50;;;;;;;12.90;100.00;97891.88;6077651;23;20018;-94
2024/01/16 10:27:03;;;;;;;11.95;3.72;;;;;;;13.11;100.00;97943.31;5988606;23;20051;-95
2024/01/16 10:37:12;;;;;;;9.93;3.60;;;;;;;13.51;100.00;97968.88;6081432;23;20023;-94
2024/01/16 10:40:00;;;;;;;12.45;3.33;;;;;;;12.95;100.00;97868.53;6031146;23;20556;-94
2024/01/16 10:42:29;;;;;;;12.38;3.47;;;;;;;13.54;100.00;97955.34;6089162;23;20032;-95
2024/01/16 10:45:22;;;;;;;18.85;3.53;;;;;;;13.04;100.00;97865.38;6132246;23;20026;-95
2024/01/16 10:48:08;;;;;;;10.05;3.20;;;;;;;12.77;100.00;97832.09;6131335;23;20077;-94
2024/01/16 10:50:43;;;;;;;9.10;3.00;;;;;;;12.52;100.00;97850.19;6108678;23;20021;-95
2024/01/16 10:53:51;;;;;;;10.73;3.83;;;;;;;12.29;100.00;97853.13;6121051;23;20043;-94
2024/01/16 11:02:59;;;;;;;11.65;3.00;;;;;;;12.52;100.00;97871.53;6197276;23;20009;-95
2024/01/16 11:05:42;;;;;;;12.45;3.05;;;;;;;12.26;100.00;97831.97;6194553;23;20025;-96
2024/01/16 11:16:10;;;;;;;12.82;3.10;;;;;;;12.38;100.00;97814.47;6258485;22;20046;-96
2024/01/16 11:26:20;;;;;;;13.02;4.05;;;;;;;12.50;100.00;97829.88;6112798;23;20057;-96
2024/01/16 12:07:14;;;;;;;6.75;2.17;;;;;;;13.41;100.00;97887.50;5795974;24;20030;-96
2024/01/16 12:09:43;;;;;;;5.22;2.03;;;;;;;12.78;100.00;97767.13;5857367;24;20085;-96
2024/01/16 12:12:15;;;;;;;8.90;2.33;;;;;;;12.79;100.00;97782.19;5993802;23;20553;-96
2024/01/16 12:14:50;;;;;;;5.40;2.70;;;;;;;12.83;100.00;97765.09;6047209;23;20347;-95
2024/01/16 12:17:20;;;;;;;8.15;2.72;;;;;;;13.24;100.00;97826.09;6043314;23;20050;-96
2024/01/16 12:19:46;;;;;;;9.55;1.98;;;;;;;13.71;100.00;97889.50;6143290;23;20511;-94
2024/01/16 12:22:21;;;;;;;5.47;1.77;;;;;;;13.39;100.00;97825.31;6162499;23;20025;-94
2024/01/16 12:24:47;;;;;;;5.05;1.55;;;;;;;13.64;100.00;97856.91;6164170;23;20064;-94
2024/01/16 12:27:14;;;;;;;7.60;1.80;;;;;;;13.98;100.00;97916.53;6164074;23;20550;-95
2024/01/16 12:29:41;;;;;;;2.95;1.70;;;;;;;13.54;100.00;97835.16;6165502;23;20017;-94
2024/01/16 12:32:09;;;;;;;7.95;2.08;;;;;;;13.78;100.00;97877.53;6162213;23;20025;-94
2024/01/16 12:34:44;;;;;;;8.05;1.90;;;;;;;13.69;100.00;97860.19;6267667;22;20020;-94
2024/01/16 12:37:10;;;;;;;5.72;1.88;;;;;;;13.71;100.00;97865.47;6249194;22;20098;-94
2024/01/16 12:39:38;;;;;;;6.75;1.55;;;;;;;13.55;100.00;97820.88;6249405;22;20013;-95
2024/01/16 12:42:05;;;;;;;5.85;1.90;;;;;;;13.29;100.00;97755.53;6250989;23;20463;-94
2024/01/16 12:44:31;;;;;;;6.15;1.95;;;;;;;13.69;100.00;97814.78;6253838;22;20088;-96
2024/01/16 12:46:58;;;;;;;7.75;2.50;;;;;;;13.94;100.00;97845.47;6253508;23;20020;-94
2024/01/16 12:49:24;;;;;;;7.93;1.98;;;;;;;14.10;100.00;97870.41;6250612;23;20020;-95
2024/01/16 12:52:15;;;;;;;4.30;1.55;;;;;;;14.16;100.00;97879.88;6253504;22;20021;-93
2024/01/16 12:54:44;;;;;;;5.15;2.25;;;;;;;14.20;100.00;97869.88;6226139;23;20016;-95
2024/01/16 12:57:13;;;;;;;;;;;;;;;14.42;100.00;97890.94;6252126;23;20431;-93
2024/01/16 12:59:45;;;;;;;3.00;1.30;;;;;;;14.16;100.00;97872.75;6277802;22;19915;-95
2024/01/16 13:02:23;;;;;;;3.05;1.25;;;;;;;14.42;100.00;97890.94;6253051;22;20031;-94
2024/01/16 13:04:58;;;;;;;5.93;1.30;;;;;;;14.16;100.00;97847.81;6253944;22;20439;-95
2024/01/16 13:07:25;;;;;;;13.73;1.45;;;;;;;13.87;100.00;97802.19;6250949;22;20012;-94
2024/01/16 13:10:19;;;;;;;;;;;;;;;14.37;100.00;97883.16;6252310;23;20030;-94
2024/01/16 13:12:48;;;;;;;6.35;1.60;;;;;;;14.24;100.00;97866.09;6276741;22;19915;-94
2024/01/16 13:15:16;;;;;;;4.57;1.10;;;;;;;14.11;100.00;97842.72;6250909;22;20062;-94
2024/01/16 13:17:43;;;;;;;3.75;1.48;;;;;;;13.87;100.00;97818.22;6251890;23;20051;-94
2024/01/16 13:20:09;;;;;;;7.35;1.58;;;;;;;13.99;100.00;97830.06;6249690;23;20038;-95
2024/01/16 13:22:38;;;;;;;7.80;1.83;;;;;;;13.84;100.00;97796.19;6250018;23;20027;-95
2024/01/16 13:25:07;;;;;;;3.83;1.40;;;;;;;13.97;100.00;97799.88;6248282;23;20502;-94
2024/01/16 13:27:37;;;;;;;8.90;1.77;;;;;;;14.13;100.00;97824.78;6248248;23;20023;-94
2024/01/16 13:30:20;;;;;;;4.55;1.45;;;;;;;13.65;100.00;97756.25;6250933;23;20046;-94
2024/01/16 13:32:46;;;;;;;9.18;1.40;;;;;;;13.39;100.00;97725.66;6251848;22;20023;-96
2024/01/16 13:35:12;;;;;;;5.05;1.63;;;;;;;13.43;100.00;97772.59;6253906;22;20024;-95
2024/01/16 13:37:40;;;;;;;4.50;1.40;;;;;;;14.10;100.00;97885.59;6251196;22;20016;-95
2024/01/16 13:40:18;;;;;;;5.10;1.90;;;;;;;13.08;100.00;97740.63;6251791;22;20142;-94
2024/01/16 13:42:45;;;;;;;5.78;1.50;;;;;;;13.41;100.00;97809.22;6251708;23;20026;-95
2024/01/16 13:45:20;;;;;;;5.75;1.38;;;;;;;13.31;100.00;97800.81;6227741;23;20043;-95
2024/01/16 13:47:50;;;;;;;2.63;1.30;;;;;;;13.04;100.00;97755.94;6251133;23;20020;-95
2024/01/16 13:50:19;;;;;;;7.30;1.63;;;;;;;12.98;100.00;97734.06;6251723;22;20016;-93
2024/01/16 13:52:54;;;;;;;7.03;2.08;;;;;;;13.81;100.00;97869.31;6251718;23;20019;-94
2024/01/16 13:55:23;;;;;;;9.50;1.80;;;;;;;13.09;100.00;97747.69;6252393;23;20020;-95
2024/01/16 13:58:13;;;;;;;7.50;2.20;;;;;;;13.65;100.00;97857.78;6254434;23;20016;-95
2024/01/16 14:00:42;;;;;;;5.35;1.35;;;;;;;13.06;100.00;97737.19;6252390;23;20020;-93
2024/01/16 14:03:08;;;;;;;4.70;1.50;;;;;;;13.44;100.00;97803.69;6255534;23;20020;-93
2024/01/16 14:05:37;;;;;;;8.23;1.95;;;;;;;14.03;100.00;97885.06;6255764;23;20500;-96
2024/01/16 14:08:11;;;;;;;8.77;2.83;;;;;;;13.67;100.00;97799.78;6258407;22;20046;-94
2024/01/16 14:10:43;;;;;;;5.18;2.00;;;;;;;14.13;100.00;97854.19;6258248;23;20020;-96
2024/01/16 14:13:12;;;;;;;10.70;1.92;;;;;;;13.54;100.00;97744.34;6253688;22;20008;-95